Time;durP1;ratioP1;P1;durP2;ratioP2;P2;SDS_P1;SDS_P2;PMS_P1;PMS_P2;Temp;Humidity;BMP_temperature;BMP_pressure;BME280_temperature;BME280_humidity;BME280_pressure;Samples;Min_cycle;Max_cycle;Signal;HPM_P1;HPM_P2
2023/03/16 00:02:06;;;;;;;;;6.00;5.33;;;;;10.80;44.51;101183.69;5096508;27;45299;-76
2023/03/16 00:04:36;;;;;;;;;9.33;5.67;;;;;10.83;45.15;101188.75;5080633;28;45438;-77
2023/03/16 00:07:02;;;;;;;;;6.00;6.00;;;;;10.77;45.17;101170.66;5079793;28;45576;-75
2023/03/16 00:09:29;;;;;;;;;5.33;5.33;;;;;10.54;44.92;101137.28;5079375;28;47072;-76
2023/03/16 00:12:01;;;;;;;;;6.33;5.33;;;;;9.86;45.29;101001.47;5080730;28;45451;-76
2023/03/16 00:14:30;;;;;;;;;5.00;5.00;;;;;10.89;44.75;101172.25;5080654;28;45495;-76
2023/03/16 00:16:56;;;;;;;;;6.33;5.00;;;;;10.55;45.36;101129.16;5079270;28;45609;-77
2023/03/16 00:19:21;;;;;;;;;6.67;6.67;;;;;10.59;45.24;101137.69;5080732;28;45692;-77
2023/03/16 00:21:48;;;;;;;;;9.33;6.00;;;;;10.47;45.47;101115.72;5081811;28;45237;-77
2023/03/16 00:24:17;;;;;;;;;9.67;7.33;;;;;10.16;45.27;101090.06;5063727;28;45354;-76
2023/03/16 00:26:43;;;;;;;;;7.33;6.00;;;;;10.47;45.39;101117.53;5068172;28;45614;-73
2023/03/16 00:29:10;;;;;;;;;7.00;6.00;;;;;10.73;45.27;101168.41;5081752;28;46619;-75
2023/03/16 00:31:37;;;;;;;;;7.00;5.00;;;;;10.66;46.08;101179.59;5081044;28;45308;-77
2023/03/16 00:34:03;;;;;;;;;6.33;6.33;;;;;10.58;45.87;101144.00;5061601;28;45307;-77
2023/03/16 00:36:29;;;;;;;;;5.00;3.67;;;;;10.65;46.14;101156.63;5080705;28;45436;-76
2023/03/16 00:38:54;;;;;;;;;6.33;5.67;;;;;10.63;45.83;101166.56;5079894;28;46593;-75
2023/03/16 00:41:21;;;;;;;;;7.00;6.33;;;;;10.59;46.44;101157.16;5061256;28;46167;-74
2023/03/16 00:43:47;;;;;;;;;7.00;5.00;;;;;10.23;45.98;101102.75;5079955;28;45461;-76
2023/03/16 00:46:16;;;;;;;;;5.00;4.00;;;;;8.11;46.22;100746.78;5080238;28;45365;-77
2023/03/16 00:48:44;;;;;;;;;8.33;8.00;;;;;10.40;46.68;101119.00;5079156;28;45729;-75
2023/03/16 00:51:13;;;;;;;;;5.00;5.00;;;;;10.55;46.44;101139.78;5079427;28;45399;-75
2023/03/16 00:53:39;;;;;;;;;7.33;6.00;;;;;10.33;46.19;101116.91;5079481;28;45324;-76
2023/03/16 00:56:05;;;;;;;;;7.00;7.00;;;;;10.30;46.58;101093.25;5095447;27;45486;-74
2023/03/16 00:58:34;;;;;;;;;5.00;5.00;;;;;10.37;47.18;101106.84;5079120;28;45596;-78
2023/03/16 01:01:09;;;;;;;;;7.67;7.00;;;;;10.40;46.75;101130.50;5079495;28;46525;-76
2023/03/16 01:03:35;;;;;;;;;8.00;7.33;;;;;10.41;46.97;101131.31;5082660;27;45382;-76
2023/03/16 01:06:10;;;;;;;;;6.33;6.33;;;;;10.30;47.14;101137.59;5079618;28;45501;-76
2023/03/16 01:08:37;;;;;;;;;5.67;5.00;;;;;10.37;47.00;101136.06;5060147;28;48975;-75
2023/03/16 01:11:04;;;;;;;;;8.00;6.00;;;;;10.28;47.09;101123.59;5060704;28;45489;-75
2023/03/16 01:13:31;;;;;;;;;6.33;6.33;;;;;10.22;46.89;101118.81;5060904;28;45581;-74
2023/03/16 01:15:57;;;;;;;;;8.67;6.00;;;;;10.33;47.21;101140.81;5079545;28;45182;-74
2023/03/16 01:18:23;;;;;;;;;6.00;6.00;;;;;9.60;47.11;101008.16;5078775;28;47025;-75
2023/03/16 01:20:49;;;;;;;;;6.33;6.33;;;;;9.75;47.29;101022.78;5077604;28;45326;-74
2023/03/16 01:23:17;;;;;;;;;8.00;7.00;;;;;9.01;47.25;100894.69;5077827;28;45364;-75
2023/03/16 01:25:43;;;;;;;;;9.67;7.67;;;;;10.17;47.21;101057.22;5095137;27;45646;-75
2023/03/16 01:28:09;;;;;;;;;9.33;7.00;;;;;9.99;47.55;101018.00;5078901;28;45703;-76
2023/03/16 01:30:34;;;;;;;;;7.33;6.67;;;;;10.34;47.65;101096.47;5077877;28;45428;-76
2023/03/16 01:33:00;;;;;;;;;7.67;7.67;;;;;10.07;47.40;101055.38;5079014;28;45171;-75
2023/03/16 01:35:25;;;;;;;;;7.67;7.67;;;;;9.95;47.64;101051.09;5077933;28;45265;-75
2023/03/16 01:37:50;;;;;;;;;8.00;8.00;;;;;10.28;47.78;101095.22;5078227;28;57588;-79
2023/03/16 01:40:17;;;;;;;;;8.00;6.33;;;;;10.30;47.33;101105.69;5078250;28;60951;-76
2023/03/16 01:43:03;;;;;;;;;8.33;7.00;;;;;10.27;47.99;101088.22;5081339;28;45182;-73
2023/03/16 01:46:05;;;;;;;;;9.67;5.67;;;;;10.25;48.21;101079.53;5082368;28;45494;-76
2023/03/16 01:48:36;;;;;;;;;8.00;6.67;;;;;10.22;48.21;101085.13;5078920;28;46184;-76
2023/03/16 01:51:14;;;;;;;;;9.00;7.33;;;;;10.25;48.50;101086.66;5078013;28;45324;-77
2023/03/16 01:53:44;;;;;;;;;9.00;8.00;;;;;10.18;47.95;101072.19;5094176;27;45517;-76
2023/03/16 01:56:14;;;;;;;;;3.00;1.00;;;;;9.91;47.80;101022.31;5078867;28;45484;-75
2023/03/16 01:58:43;;;;;;;;;8.67;6.67;;;;;10.11;47.71;101068.38;5077023;28;47773;-76
2023/03/16 02:01:09;;;;;;;;;6.67;6.67;;;;;10.11;48.09;101086.97;5078657;28;45492;-75
2023/03/16 02:03:35;;;;;;;;;5.67;5.67;;;;;9.05;47.85;100912.88;5085847;28;45337;-74
2023/03/16 02:06:08;;;;;;;;;8.00;6.00;;;;;9.99;48.62;101068.47;5080766;28;45493;-74
2023/03/16 02:08:36;;;;;;;;;5.00;5.00;;;;;9.91;48.20;101060.31;5077120;28;48005;-77
2023/03/16 02:11:03;;;;;;;;;6.00;6.00;;;;;9.45;48.23;100989.09;5077055;28;46099;-76
2023/03/16 02:13:32;;;;;;;;;8.33;6.00;;;;;9.74;48.49;101035.22;5094065;27;45265;-75
2023/03/16 02:15:58;;;;;;;;;6.33;6.33;;;;;9.67;48.44;101025.25;5075476;27;45539;-76
2023/03/16 02:18:25;;;;;;;;;9.00;7.33;;;;;9.79;48.13;101055.22;5069695;28;46529;-74
2023/03/16 02:21:10;;;;;;;;;7.67;6.67;;;;;9.79;48.04;101048.09;5067296;28;45505;-75
2023/03/16 02:23:36;;;;;;;;;7.00;6.00;;;;;9.72;47.84;101044.28;5075843;28;45577;-76
2023/03/16 02:26:13;;;;;;;;;8.67;7.00;;;;;9.78;47.79;101051.72;5078293;28;45473;-75
2023/03/16 02:28:54;;;;;;;;;7.67;6.67;;;;;9.73;47.71;101041.50;5043325;28;48983;-76
2023/03/16 02:31:21;;;;;;;;;7.33;5.00;;;;;9.17;47.59;100968.50;5079365;27;45462;-75
2023/03/16 02:33:48;;;;;;;;;6.00;4.67;;;;;9.44;48.03;101004.19;5078061;28;45342;-75
2023/03/16 02:36:14;;;;;;;;;6.67;6.67;;;;;9.24;47.74;100970.53;5076445;28;45513;-75
2023/03/16 02:38:40;;;;;;;;;6.67;5.67;;;;;9.15;47.53;100977.44;5077623;28;46101;-75
2023/03/16 02:41:11;;;;;;;;;6.33;6.00;;;;;9.52;47.54;101031.88;5073361;28;45532;-75
2023/03/16 02:43:40;;;;;;;;;5.00;5.00;;;;;9.26;47.64;100981.00;5057198;28;45316;-75
2023/03/16 02:46:06;;;;;;;;;7.00;7.00;;;;;9.44;47.47;101009.47;5070104;28;45241;-75
2023/03/16 02:48:42;;;;;;;;;5.00;3.00;;;;;9.65;47.90;101032.50;5070003;28;45655;-75
2023/03/16 02:51:09;;;;;;;;;7.33;7.33;;;;;9.58;47.51;101026.88;5072499;28;45492;-76
2023/03/16 02:53:34;;;;;;;;;6.00;6.00;;;;;9.18;47.70;100965.72;5065202;28;45415;-76
2023/03/16 02:56:01;;;;;;;;;6.33;6.33;;;;;9.33;47.78;100985.66;5058662;28;45442;-75
2023/03/16 02:58:27;;;;;;;;;5.33;4.00;;;;;9.47;47.82;101018.16;5062415;28;45728;-75
2023/03/16 03:00:52;;;;;;;;;5.33;5.33;;;;;9.11;47.88;100964.56;5059008;28;46062;-75
2023/03/16 03:03:18;;;;;;;;;6.00;6.00;;;;;9.48;48.03;101003.91;5072377;28;45314;-76
2023/03/16 03:05:43;;;;;;;;;6.00;6.00;;;;;9.35;47.72;100989.00;5065415;27;45573;-75
2023/03/16 03:08:08;;;;;;;;;4.67;4.00;;;;;9.33;47.35;100992.78;5079257;28;46264;-76
2023/03/16 03:10:34;;;;;;;;;5.00;5.00;;;;;8.44;47.54;100848.28;5076773;28;45371;-77
2023/03/16 03:12:59;;;;;;;;;5.67;5.67;;;;;9.31;47.33;100990.25;5040326;28;45373;-76
2023/03/16 03:15:24;;;;;;;;;5.00;5.00;;;;;9.10;47.77;100946.97;5062258;28;45427;-74
2023/03/16 03:17:50;;;;;;;;;5.67;4.00;;;;;9.37;48.05;101000.34;5076823;28;45711;-73
2023/03/16 03:20:16;;;;;;;;;7.33;3.67;;;;;9.29;48.00;100980.75;5073892;27;46427;-74
2023/03/16 03:22:43;;;;;;;;;6.67;5.00;;;;;8.98;47.62;100938.22;5061567;28;45540;-75
2023/03/16 03:25:10;;;;;;;;;6.00;4.00;;;;;9.02;48.05;100925.56;5042273;28;45489;-76
2023/03/16 03:27:36;;;;;;;;;5.33;5.33;;;;;9.06;47.79;100935.78;5071050;28;46495;-75
2023/03/16 03:30:02;;;;;;;;;5.00;5.00;;;;;7.63;47.77;100735.81;5067041;28;45475;-74
2023/03/16 03:32:28;;;;;;;;;6.00;5.00;;;;;8.89;47.52;100928.41;5090561;28;45304;-75
2023/03/16 03:34:53;;;;;;;;;3.00;3.00;;;;;9.28;47.85;100984.38;5064683;28;45538;-76
2023/03/16 03:37:18;;;;;;;;;6.00;5.00;;;;;9.31;47.29;101003.53;5078821;28;47385;-75
2023/03/16 03:39:44;;;;;;;;;5.00;3.33;;;;;9.24;48.19;100996.22;5075542;28;45394;-75
2023/03/16 03:42:10;;;;;;;;;6.67;5.00;;;;;9.19;47.77;100972.69;5077268;27;45361;-75
2023/03/16 03:44:35;;;;;;;;;3.00;3.00;;;;;9.27;47.75;100986.19;5080977;28;45548;-77
2023/03/16 03:47:01;;;;;;;;;4.00;4.00;;;;;9.30;47.77;100998.34;5079931;28;46534;-79
2023/03/16 03:49:26;;;;;;;;;4.00;4.00;;;;;9.31;48.09;100992.91;5079805;28;45583;-74
2023/03/16 03:51:52;;;;;;;;;7.67;5.00;;;;;9.27;47.99;100995.94;5062038;28;45495;-77
2023/03/16 03:54:17;;;;;;;;;3.67;3.67;;;;;8.93;48.05;100935.13;5068775;28;45552;-75
2023/03/16 03:56:42;;;;;;;;;5.67;3.67;;;;;8.42;48.27;100876.72;5059632;28;45544;-76
2023/03/16 03:59:08;;;;;;;;;4.33;4.00;;;;;8.78;47.85;100916.03;5076422;28;45302;-77
2023/03/16 04:01:33;;;;;;;;;4.33;4.33;;;;;8.75;47.83;100926.91;5070796;28;45411;-76
2023/03/16 04:03:59;;;;;;;;;5.00;4.00;;;;;8.29;47.60;100823.03;5073060;28;45652;-75
2023/03/16 04:06:24;;;;;;;;;5.00;4.00;;;;;8.61;47.84;100874.22;5067793;28;48549;-74
2023/03/16 04:08:50;;;;;;;;;4.00;4.00;;;;;9.23;47.90;100974.16;5079974;28;45437;-75
2023/03/16 04:11:15;;;;;;;;;4.67;3.67;;;;;9.21;48.07;100980.53;5078992;28;45435;-76
2023/03/16 04:13:41;;;;;;;;;3.67;3.67;;;;;9.19;48.00;100978.00;5064371;28;45463;-74
2023/03/16 04:16:06;;;;;;;;;6.00;4.00;;;;;8.98;48.06;100930.28;5056656;28;47382;-75
2023/03/16 04:18:37;;;;;;;;;9.33;6.00;;;;;9.12;48.25;100959.13;5070102;28;45532;-75
2023/03/16 04:21:07;;;;;;;;;5.00;4.00;;;;;9.03;48.30;100936.06;5079548;28;45497;-75
2023/03/16 04:23:33;;;;;;;;;5.33;5.33;;;;;8.98;47.79;100954.13;5060472;28;45484;-75
2023/03/16 04:25:58;;;;;;;;;3.33;3.33;;;;;8.27;48.52;100833.75;5080869;28;46528;-76
2023/03/16 04:28:25;;;;;;;;;5.00;3.67;;;;;8.93;48.09;100931.63;5052213;28;45449;-74
2023/03/16 04:30:53;;;;;;;;;4.33;4.33;;;;;8.95;48.63;100938.50;5062450;28;45301;-75
2023/03/16 04:33:21;;;;;;;;;5.33;5.00;;;;;8.82;48.55;100906.88;5079779;28;45834;-83
2023/03/16 04:35:48;;;;;;;;;4.00;4.00;;;;;8.95;48.63;100929.69;5062822;28;45367;-75
2023/03/16 04:38:13;;;;;;;;;8.33;5.33;;;;;8.82;48.78;100917.47;5079523;27;45605;-75
2023/03/16 04:40:39;;;;;;;;;4.00;4.00;;;;;8.89;49.03;100933.72;5079474;28;45348;-74
2023/03/16 04:43:04;;;;;;;;;5.67;5.67;;;;;8.87;48.92;100930.34;5078577;28;45478;-75
2023/03/16 04:45:31;;;;;;;;;5.00;5.00;;;;;7.90;49.21;100773.22;5062775;28;47078;-77
2023/03/16 04:47:56;;;;;;;;;5.00;5.00;;;;;7.69;49.19;100734.44;5074267;28;45539;-76
2023/03/16 04:50:21;;;;;;;;;5.00;5.00;;;;;8.87;48.85;100956.03;5069777;28;45561;-75
2023/03/16 04:52:47;;;;;;;;;5.00;5.00;;;;;8.53;48.72;100879.28;5078804;28;45257;-76
2023/03/16 04:55:12;;;;;;;;;3.67;3.00;;;;;8.65;48.95;100904.78;5063086;28;48365;-75
2023/03/16 04:57:38;;;;;;;;;3.33;3.33;;;;;8.57;48.83;100879.88;5076436;28;45427;-77
2023/03/16 05:00:12;;;;;;;;;5.00;4.67;;;;;8.58;48.73;100881.56;5074642;28;45362;-76
2023/03/16 05:02:38;;;;;;;;;3.33;3.33;;;;;8.45;48.71;100865.84;5064540;28;45583;-76
2023/03/16 05:05:04;;;;;;;;;4.00;3.00;;;;;8.39;48.99;100856.59;5069771;28;47606;-77
2023/03/16 05:07:31;;;;;;;;;1.33;1.00;;;;;8.62;48.52;100894.44;5079141;28;45389;-75
2023/03/16 05:09:56;;;;;;;;;4.00;4.00;;;;;8.55;49.03;100909.16;5040522;28;45369;-77
2023/03/16 05:12:21;;;;;;;;;5.33;5.33;;;;;8.02;49.11;100827.00;5065249;28;45399;-74
2023/03/16 05:14:47;;;;;;;;;3.67;3.67;;;;;7.94;48.89;100811.72;5058747;28;46749;-76
2023/03/16 05:17:13;;;;;;;;;4.00;3.00;;;;;8.11;49.68;100850.06;5067416;28;45637;-76
2023/03/16 05:19:39;;;;;;;;;5.67;5.67;;;;;8.14;49.31;100846.31;5087976;27;45416;-77
2023/03/16 05:22:05;;;;;;;;;3.00;3.00;;;;;8.16;49.51;100866.41;5062401;28;45395;-75
2023/03/16 05:24:31;;;;;;;;;6.00;4.67;;;;;7.59;49.54;100769.59;5070636;28;48555;-74
2023/03/16 05:26:56;;;;;;;;;5.00;4.00;;;;;8.16;49.28;100866.41;5067199;28;45654;-74
2023/03/16 05:29:22;;;;;;;;;5.00;3.00;;;;;7.48;49.83;100774.91;5064398;28;45355;-74
2023/03/16 05:31:47;;;;;;;;;4.00;4.00;;;;;8.31;49.98;100919.09;5075952;28;45286;-76
2023/03/16 05:34:13;;;;;;;;;6.00;4.00;;;;;8.26;50.20;100892.16;5078311;28;45660;-74
2023/03/16 05:36:38;;;;;;;;;5.00;5.00;;;;;8.36;50.07;100903.69;5075368;28;45564;-76
2023/03/16 05:39:04;;;;;;;;;5.33;5.00;;;;;7.59;49.89;100784.63;5067203;27;46164;-75
2023/03/16 05:41:29;;;;;;;;;4.00;4.00;;;;;8.01;50.03;100854.44;5072825;28;45398;-75
2023/03/16 05:43:55;;;;;;;;;4.67;4.67;;;;;6.96;49.57;100668.03;5060483;28;47470;-74
2023/03/16 05:46:20;;;;;;;;;6.33;5.00;;;;;8.17;49.70;100873.38;5073709;28;45477;-76
2023/03/16 05:48:45;;;;;;;;;7.00;7.00;;;;;8.35;49.49;100902.00;5069371;27;45457;-75
2023/03/16 05:51:13;;;;;;;;;6.00;3.00;;;;;8.02;49.63;100847.34;5069624;28;45360;-75
2023/03/16 05:53:38;;;;;;;;;4.00;4.00;;;;;8.42;49.26;100903.22;5077616;28;46825;-75
2023/03/16 05:56:04;;;;;;;;;4.00;4.00;;;;;8.36;49.53;100909.81;5062025;28;45236;-77
2023/03/16 05:58:32;;;;;;;;;3.67;3.67;;;;;7.48;49.49;100755.56;5072820;28;45252;-76
2023/03/16 06:01:01;;;;;;;;;5.00;5.00;;;;;8.45;49.26;100910.91;5058706;28;45558;-74
2023/03/16 06:03:26;;;;;;;;;4.67;4.00;;;;;8.12;49.46;100848.25;5076488;28;46448;-76
2023/03/16 06:05:52;;;;;;;;;3.33;3.00;;;;;8.05;49.13;100845.28;5061604;28;45253;-75
2023/03/16 06:08:18;;;;;;;;;3.00;3.00;;;;;7.69;49.31;100792.66;5074665;28;45490;-75
2023/03/16 06:10:46;;;;;;;;;4.00;4.00;;;;;8.42;49.68;100892.59;5058241;27;45551;-74
2023/03/16 06:13:11;;;;;;;;;6.00;4.33;;;;;8.30;49.76;100880.34;5062004;27;48468;-76
2023/03/16 06:15:37;;;;;;;;;3.00;3.00;;;;;8.16;49.38;100858.47;5079379;27;49641;-75
2023/03/16 06:18:02;;;;;;;;;3.33;3.33;;;;;7.62;49.22;100761.44;5053316;28;45401;-76
2023/03/16 06:20:28;;;;;;;;;4.00;4.00;;;;;8.50;49.38;100912.19;5090443;27;45227;-75
2023/03/16 06:22:53;;;;;;;;;3.00;3.00;;;;;8.23;49.16;100866.75;5061752;28;46342;-75
2023/03/16 06:25:18;;;;;;;;;5.00;3.33;;;;;8.43;49.08;100899.59;5056065;28;45673;-75
2023/03/16 06:27:44;;;;;;;;;4.67;4.33;;;;;8.32;49.50;100902.22;5076001;27;45670;-77
2023/03/16 06:30:11;;;;;;;;;5.00;4.00;;;;;8.51;49.12;100920.97;5088714;27;45544;-75
2023/03/16 06:32:37;;;;;;;;;4.67;4.67;;;;;8.54;48.91;100899.53;5069883;27;45474;-76
2023/03/16 06:35:04;;;;;;;;;4.00;3.67;;;;;8.07;48.75;100840.69;5089797;27;45206;-77
2023/03/16 06:37:30;;;;;;;;;3.67;3.67;;;;;8.51;48.86;100884.72;5074593;28;45597;-77
2023/03/16 06:39:55;;;;;;;;;4.00;4.00;;;;;8.63;48.62;100890.84;5075327;27;45461;-76
2023/03/16 06:42:21;;;;;;;;;5.00;4.67;;;;;8.69;48.00;100889.47;5070429;27;47284;-76
2023/03/16 06:44:46;;;;;;;;;5.00;4.33;;;;;8.71;48.11;100883.06;5072209;28;45431;-77
2023/03/16 06:47:12;;;;;;;;;4.67;4.67;;;;;8.44;47.79;100827.09;5064888;28;45423;-75
2023/03/16 06:49:38;;;;;;;;;4.00;3.00;;;;;8.86;47.59;100877.44;5059778;28;45547;-76
2023/03/16 06:52:03;;;;;;;;;6.00;5.00;;;;;9.14;47.38;100905.94;5067275;28;45817;-77
2023/03/16 06:54:31;;;;;;;;;5.00;5.00;;;;;9.26;47.52;100889.00;5059496;28;45468;-76
2023/03/16 06:56:57;;;;;;;;;6.67;4.00;;;;;9.00;46.95;100834.66;5073556;28;45573;-76
2023/03/16 06:59:22;;;;;;;;;5.67;3.33;;;;;9.27;46.26;100856.19;5042381;28;45301;-77
2023/03/16 07:01:49;;;;;;;;;3.67;3.00;;;;;9.56;46.32;100884.66;5067784;28;45374;-76
2023/03/16 07:04:14;;;;;;;;;7.33;5.67;;;;;9.31;45.68;100827.56;5077431;28;45459;-78
2023/03/16 07:06:40;;;;;;;;;5.00;4.00;;;;;9.67;45.82;100863.31;5042988;28;45281;-77
2023/03/16 07:09:06;;;;;;;;;5.00;5.00;;;;;9.23;45.81;100777.84;5059613;28;45486;-79
2023/03/16 07:11:32;;;;;;;;;4.00;3.00;;;;;9.43;45.25;100794.66;5057342;28;45557;-78
2023/03/16 07:13:57;;;;;;;;;6.67;3.67;;;;;9.29;44.98;100765.84;5076681;28;45578;-77
2023/03/16 07:16:24;;;;;;;;;3.33;2.67;;;;;9.82;44.64;100846.03;5052430;28;45250;-77
2023/03/16 07:18:49;;;;;;;;;4.33;3.00;;;;;9.76;44.22;100846.56;5077437;27;45229;-75
2023/03/16 07:21:15;;;;;;;;;6.00;3.00;;;;;10.03;44.39;100888.44;5066433;27;48647;-77
2023/03/16 07:23:40;;;;;;;;;1.00;1.00;;;;;9.73;44.01;100818.47;5085109;27;45496;-81
2023/03/16 07:26:07;;;;;;;;;2.00;2.00;;;;;9.66;43.90;100797.94;5059496;28;45443;-77
2023/03/16 07:28:33;;;;;;;;;3.33;3.00;;;;;10.03;43.87;100844.13;5073606;28;45465;-74
2023/03/16 07:30:58;;;;;;;;;3.00;3.00;;;;;10.11;43.47;100842.56;5057734;28;47091;-76
2023/03/16 07:33:23;;;;;;;;;3.00;3.00;;;;;10.15;43.18;100817.41;5076468;28;45581;-77
2023/03/16 07:35:50;;;;;;;;;3.67;3.00;;;;;10.51;43.03;100851.28;5075658;28;45414;-74
2023/03/16 07:38:16;;;;;;;;;6.00;5.00;;;;;10.81;42.24;100860.06;5076652;28;45229;-77
2023/03/16 07:40:41;;;;;;;;;5.67;5.00;;;;;10.14;42.31;100717.44;5074979;28;48115;-76
2023/03/16 07:43:06;;;;;;;;;3.67;3.00;;;;;11.30;42.00;100855.47;5069864;28;45221;-75
2023/03/16 07:45:32;;;;;;;;;6.00;2.00;;;;;11.54;41.46;100834.47;5074350;28;45435;-75
2023/03/16 07:47:57;;;;;;;;;7.33;5.67;;;;;11.39;41.26;100758.72;5074724;28;45481;-74
2023/03/16 07:50:23;;;;;;;;;5.00;4.00;;;;;12.14;40.04;100861.47;5063757;28;45676;-76
2023/03/16 07:52:48;;;;;;;;;2.33;2.33;;;;;12.08;39.91;100838.94;5066181;28;45509;-77
2023/03/16 07:55:14;;;;;;;;;4.33;4.33;;;;;12.28;39.40;100866.28;5066680;28;45356;-75
2023/03/16 07:57:41;;;;;;;;;5.67;4.67;;;;;11.69;39.42;100744.25;5056645;28;45457;-77
2023/03/16 08:00:08;;;;;;;;;6.00;5.00;;;;;12.39;39.06;100828.72;5064291;28;45875;-76
2023/03/16 08:02:33;;;;;;;;;3.67;3.67;;;;;12.84;39.23;100867.78;5071400;28;45419;-76
2023/03/16 08:04:59;;;;;;;;;8.33;4.00;;;;;13.09;38.39;100866.94;5063253;28;45463;-74
2023/03/16 08:07:24;;;;;;;;;9.00;6.00;;;;;12.52;38.58;100729.66;5043772;28;45505;-77
2023/03/16 08:09:50;;;;;;;;;4.33;2.33;;;;;13.42;37.75;100845.81;5077133;28;46442;-76
2023/03/16 08:12:16;;;;;;;;;4.00;4.00;;;;;13.49;37.12;100830.78;5075230;28;46226;-77
2023/03/16 08:14:43;;;;;;;;;6.00;4.67;;;;;13.45;37.46;100834.78;5076119;28;45479;-76
2023/03/16 08:17:11;;;;;;;;;3.00;3.00;;;;;13.66;36.92;100845.91;5077381;28;45546;-76
2023/03/16 08:19:36;;;;;;;;;6.67;5.00;;;;;13.60;36.79;100835.84;5076059;27;45545;-76
2023/03/16 08:22:02;;;;;;;;;6.67;5.33;;;;;13.76;36.82;100852.94;5079345;28;45499;-77
2023/03/16 08:24:29;;;;;;;;;4.00;4.00;;;;;13.78;36.96;100849.09;5047974;28;45623;-76
2023/03/16 08:26:56;;;;;;;;;6.67;4.00;;;;;13.69;37.23;100826.88;5074964;27;45709;-76
2023/03/16 08:29:23;;;;;;;;;8.33;8.00;;;;;13.90;37.10;100838.94;5077480;28;45715;-75
2023/03/16 08:31:49;;;;;;;;;6.33;4.00;;;;;13.94;36.23;100856.31;5072210;28;45279;-77
2023/03/16 08:34:14;;;;;;;;;4.00;4.00;;;;;12.90;36.77;100675.00;5077503;28;45473;-77
2023/03/16 08:36:42;;;;;;;;;6.00;6.00;;;;;13.45;36.60;100738.66;5071616;28;45584;-76
2023/03/16 08:39:08;;;;;;;;;8.00;5.00;;;;;12.79;36.13;100625.44;5067270;28;46994;-74
2023/03/16 08:41:34;;;;;;;;;5.00;4.00;;;;;13.76;36.43;100767.41;5072256;28;45518;-75
2023/03/16 08:43:59;;;;;;;;;5.00;5.00;;;;;14.45;36.03;100855.28;5078905;28;45285;-75
2023/03/16 08:46:25;;;;;;;;;5.00;4.00;;;;;14.13;35.44;100770.47;5066613;28;45357;-75
2023/03/16 08:48:51;;;;;;;;;4.67;3.00;;;;;14.74;35.28;100844.06;5075969;27;46084;-76
2023/03/16 08:51:18;;;;;;;;;3.00;3.00;;;;;14.60;34.99;100772.50;5070533;27;45245;-74
2023/03/16 08:53:44;;;;;;;;;3.67;2.33;;;;;15.30;34.04;100839.59;5055001;28;45533;-75
2023/03/16 08:56:13;;;;;;;;;3.33;3.33;;;;;15.42;34.01;100827.53;5044265;28;45301;-75
2023/03/16 08:58:40;;;;;;;;;5.33;5.33;;;;;15.31;33.65;100778.84;5070227;28;46335;-75
2023/03/16 09:01:07;;;;;;;;;3.33;3.00;;;;;16.01;33.31;100841.31;5064767;28;45289;-81
2023/03/16 09:03:37;;;;;;;;;5.00;3.67;;;;;16.16;32.92;100814.56;5076809;28;45474;-75
2023/03/16 09:06:05;;;;;;;;;8.00;6.00;;;;;16.02;32.08;100749.16;5070961;28;45411;-74
2023/03/16 09:08:30;;;;;;;;;6.00;6.00;;;;;17.26;31.54;100821.13;5050957;28;45543;-75
2023/03/16 09:11:01;;;;;;;;;3.00;1.67;;;;;17.06;30.49;100731.38;5053850;28;45521;-77
2023/03/16 09:13:27;;;;;;;;;5.00;4.00;;;;;18.01;30.53;100838.00;5062866;28;45307;-75
2023/03/16 09:15:53;;;;;;;;;5.33;4.00;;;;;18.14;29.74;100836.28;5072888;28;45548;-76
2023/03/16 09:18:19;;;;;;;;;5.33;2.00;;;;;18.04;29.74;100797.28;5049438;28;46286;-76
2023/03/16 09:20:46;;;;;;;;;3.00;2.00;;;;;18.54;29.76;100829.44;5070817;28;45401;-77
2023/03/16 09:23:12;;;;;;;;;2.67;2.67;;;;;17.80;28.72;100678.25;5062727;28;45451;-74
2023/03/16 09:25:38;;;;;;;;;2.00;2.00;;;;;18.02;29.08;100702.47;5070702;28;45601;-75
2023/03/16 09:28:04;;;;;;;;;12.33;8.00;;;;;18.32;28.96;100762.34;5075275;28;45635;-75
2023/03/16 09:30:29;;;;;;;;;4.33;3.00;;;;;18.32;28.77;100765.88;5051228;28;45533;-74
2023/03/16 09:32:55;;;;;;;;;2.00;2.00;;;;;18.34;29.47;100785.34;5070039;28;45522;-77
2023/03/16 09:35:21;;;;;;;;;2.67;2.67;;;;;18.03;29.02;100675.41;5073710;28;45604;-77
2023/03/16 09:37:46;;;;;;;;;3.33;2.00;;;;;19.40;28.51;100796.88;5071188;28;48218;-78
2023/03/16 09:40:27;;;;;;;;;3.00;2.67;;;;;19.60;27.82;100803.22;5069787;28;45654;-76
2023/03/16 09:43:01;;;;;;;;;2.00;2.00;;;;;17.51;28.06;100504.50;5070719;28;45459;-76
2023/03/16 09:46:10;;;;;;;;;2.33;2.33;;;;;19.20;28.60;100801.31;5043945;28;45514;-75
2023/03/16 09:48:37;;;;;;;;;4.67;3.00;;;;;18.67;28.53;100693.28;5018580;28;45486;-75
2023/03/16 09:51:06;;;;;;;;;3.00;3.00;;;;;19.20;28.01;100693.50;5066506;28;45496;-74
2023/03/16 09:53:38;;;;;;;;;2.67;1.67;;;;;20.07;27.30;100768.28;5068803;28;45594;-77
2023/03/16 09:56:09;;;;;;;;;7.33;5.00;;;;;19.31;27.69;100674.91;5062826;28;45324;-77
2023/03/16 09:58:35;;;;;;;;;3.33;3.00;;;;;19.38;27.76;100735.06;5058834;28;48466;-77
2023/03/16 10:01:33;;;;;;;;;4.67;3.00;;;;;19.22;28.41;100799.25;5076761;27;45464;-76
2023/03/16 10:04:35;;;;;;;;;3.67;2.67;;;;;17.91;29.36;100704.66;5054770;28;45346;-75
2023/03/16 10:07:18;;;;;;;;;5.00;4.33;;;;;18.27;29.96;100784.47;5051633;28;45700;-75
2023/03/16 10:10:16;;;;;;;;;4.67;4.67;;;;;18.05;30.65;100790.88;5074259;28;46524;-76
2023/03/16 10:12:46;;;;;;;;;4.67;4.00;;;;;17.37;30.57;100696.19;5057861;28;45481;-75
2023/03/16 10:15:17;;;;;;;;;3.33;3.00;;;;;17.98;30.88;100789.97;5079990;27;45314;-76
2023/03/16 10:17:54;;;;;;;;;15.67;13.00;;;;;16.90;30.65;100626.84;5075622;28;45476;-75
2023/03/16 10:20:21;;;;;;;;;7.00;6.33;;;;;17.78;31.39;100793.25;5068115;28;46589;-73
2023/03/16 10:22:51;;;;;;;;;5.00;3.67;;;;;17.41;30.81;100728.91;5049300;28;45462;-76
2023/03/16 10:25:42;;;;;;;;;4.00;4.00;;;;;17.60;31.47;100777.50;5061461;28;45471;-75
2023/03/16 10:28:15;;;;;;;;;7.33;4.33;;;;;17.58;31.75;100787.63;5075618;28;45582;-76
2023/03/16 10:30:41;;;;;;;;;5.67;3.00;;;;;16.54;31.79;100651.72;5074303;28;46274;-75
2023/03/16 10:33:25;;;;;;;;;2.00;2.00;;;;;17.06;32.25;100735.91;5073880;28;45506;-76
2023/03/16 10:35:57;;;;;;;;;5.00;3.67;;;;;16.21;32.35;100621.72;5055498;28;45591;-76
2023/03/16 10:38:31;;;;;;;;;2.33;2.00;;;;;17.18;32.36;100778.22;5076790;28;45373;-75
2023/03/16 10:40:58;;;;;;;;;12.67;8.00;;;;;17.26;32.90;100770.09;5076377;28;46188;-77
2023/03/16 10:43:24;;;;;;;;;5.33;4.33;;;;;16.79;32.54;100675.63;5077374;28;45435;-75
2023/03/16 10:45:50;;;;;;;;;4.00;3.00;;;;;16.75;32.42;100690.44;5060679;28;45503;-77
2023/03/16 10:48:18;;;;;;;;;4.00;4.00;;;;;16.89;32.93;100735.28;5064943;28;45250;-76
2023/03/16 10:50:54;;;;;;;;;4.00;4.00;;;;;16.42;32.85;100688.09;5055030;28;48019;-76
2023/03/16 10:53:24;;;;;;;;;8.00;5.67;;;;;16.84;33.21;100764.53;5067589;28;45509;-77
2023/03/16 10:55:55;;;;;;;;;5.33;5.33;;;;;15.03;33.30;100467.88;5072519;28;45349;-76
2023/03/16 10:58:33;;;;;;;;;4.00;4.00;;;;;15.94;33.48;100611.59;5057387;28;45521;-74
2023/03/16 11:00:59;;;;;;;;;8.33;6.00;;;;;16.62;33.38;100708.03;5070534;28;46467;-74
2023/03/16 11:03:31;;;;;;;;;8.67;8.00;;;;;16.59;33.25;100729.00;5052644;27;46237;-76
2023/03/16 11:05:59;;;;;;;;;4.33;4.00;;;;;16.65;33.92;100744.41;5057805;28;45359;-76
2023/03/16 11:08:26;;;;;;;;;2.67;2.00;;;;;16.31;33.65;100669.75;5073484;28;45661;-76
2023/03/16 11:10:58;;;;;;;;;4.00;2.00;;;;;14.68;33.44;100405.91;5057538;28;47170;-73
2023/03/16 11:13:32;;;;;;;;;3.00;1.67;;;;;16.70;33.83;100726.75;5072495;28;45349;-75
2023/03/16 11:16:26;;;;;;;;;3.00;3.00;;;;;16.63;33.71;100708.84;5076326;28;45540;-75
2023/03/16 11:18:58;;;;;;;;;6.67;4.00;;;;;16.38;34.08;100684.09;5076320;28;45493;-75
2023/03/16 11:21:33;;;;;;;;;4.00;4.00;;;;;16.54;33.40;100726.03;5058521;28;46003;-72
2023/03/16 11:24:02;;;;;;;;;5.00;3.33;;;;;16.25;33.92;100686.59;5049421;28;45468;-75
2023/03/16 11:26:38;;;;;;;;;4.33;3.00;;;;;16.30;34.02;100716.38;5073959;27;45527;-76
2023/03/16 11:29:19;;;;;;;;;4.67;4.67;;;;;15.97;34.55;100672.91;5058142;28;45435;-75
2023/03/16 11:31:56;;;;;;;;;3.33;2.67;;;;;16.12;34.87;100695.25;5077096;28;45637;-76
2023/03/16 11:34:27;;;;;;;;;3.33;3.33;;;;;16.09;34.66;100701.81;5076011;28;45398;-75